Grizzly Air Cargo 5143


PANC
Ted Stevens Anchorage International Airport
Anchorage, Alaska, US
KDEN
Denver International Airport
Denver, Colorado, US

Activity Log

Date Flight Route Aircraft Duration
12/22/2019 GRZ5281 TED JOH BKA J195 ANN 5000N/12200W GEG DLN CKW TSHNR3 B738 5h 04m
11/06/2019 GRZ511 TED JOH BKA J195 ANN 5000N/12200W GEG DLN CKW TSHNR3 B738 4h 55m
09/24/2019 GRZ511 TED JOH BKA J195 ANN 5000N/12200W GEG DLN CKW TSHNR3 B738 4h 49m

Route Details

Aircraft Information
Primary: Boeing 727-200F
Backup: Boeing 737-800BCF
Route Data
Distance: 2088nm
Sched. Duration: 5h 04m
Avg. Duration: 4h 69m (-35m)
Times Flown: 3
Recm'd Route: TED JOH BKA J195 ANN 5000N/12200W GEG DLN CKW TSHNR3
Planned Altitude: 35,000ft
Origin Wx: PANC 210853Z 16003KT 10SM FEW065 SCT100 BKN250 M06/M07 A2889 RMK AO2 SLP786 I1000 I3000 T10561067 400001067 53014 $
Dest. Wx: KDEN 210853Z 24010KT 10SM CLR M07/M16 A3032 RMK AO2 SLP304 T10721156 58016
Notes:

Financial History
Total Freight: 79,200lbs
Average Load: 26,400lbs/flt
Fuel Used: 77,783lbs
Avg. Fuel Used: 25,928lbs/flt
Fuel Expense: $99,606
Avg. Fuel Expense: $33,202
Avg. Fuel Cost: $1.28/lbs
Total Gross Income: $113,267
Pilot Pay: $547
Total Expenses: $12,389
Total Revenue: $-1,589
Average Revenue: $37,755.52